createdAt,value
2023-04-08T00:01:05.903Z,59.80
2023-04-08T00:03:07.953Z,60.20
2023-04-08T00:05:09.772Z,60.60
2023-04-08T00:07:11.386Z,60.10
2023-04-08T00:09:13.031Z,60.00
2023-04-08T00:11:14.691Z,59.90
2023-04-08T00:13:16.340Z,59.80
2023-04-08T00:15:17.982Z,60.00
2023-04-08T00:17:19.653Z,60.60
2023-04-08T00:19:21.343Z,60.30
2023-04-08T00:21:23.471Z,60.00
2023-04-08T00:23:25.178Z,60.00
2023-04-08T00:25:26.832Z,60.20
2023-04-08T00:27:28.459Z,60.00
2023-04-08T00:29:30.726Z,59.90
2023-04-08T00:31:32.449Z,59.90
2023-04-08T00:33:34.255Z,60.00
2023-04-08T00:35:35.922Z,60.00
2023-04-08T00:37:37.634Z,59.80
2023-04-08T00:39:39.323Z,59.80
2023-04-08T00:41:41.185Z,60.20
2023-04-08T00:43:42.908Z,60.50
2023-04-08T00:45:44.646Z,60.40
2023-04-08T00:47:47.143Z,60.20
2023-04-08T00:49:48.894Z,60.00
2023-04-08T00:51:50.593Z,59.80
2023-04-08T00:53:52.235Z,60.20
2023-04-08T00:55:53.854Z,60.10
2023-04-08T00:57:55.987Z,60.10
2023-04-08T00:59:57.936Z,60.00
2023-04-08T01:02:06.742Z,59.90
2023-04-08T01:04:20.920Z,59.90
2023-04-08T01:06:28.741Z,59.80
2023-04-08T01:08:31.396Z,59.80
2023-04-08T01:10:33.850Z,59.80
2023-04-08T01:12:40.468Z,60.00
2023-04-08T01:14:44.089Z,59.90
2023-04-08T01:16:46.107Z,59.80
2023-04-08T01:18:48.268Z,59.80
2023-04-08T01:20:50.991Z,59.80
2023-04-08T01:22:58.683Z,59.90
2023-04-08T01:25:08.715Z,59.90
2023-04-08T01:27:11.258Z,60.00
2023-04-08T01:29:13.868Z,59.90
2023-04-08T01:31:16.100Z,59.80
2023-04-08T01:33:18.910Z,59.90
2023-04-08T01:35:21.394Z,59.90
2023-04-08T01:37:23.664Z,59.80
2023-04-08T01:39:29.558Z,59.80
2023-04-08T01:41:33.122Z,59.90
2023-04-08T01:43:35.560Z,60.00
2023-04-08T01:45:39.593Z,60.10
2023-04-08T01:47:41.524Z,60.00
2023-04-08T01:49:43.827Z,59.90
2023-04-08T01:51:46.473Z,59.90
2023-04-08T01:53:48.163Z,60.00
2023-04-08T01:55:52.820Z,60.10
2023-04-08T01:57:56.178Z,60.20
2023-04-08T02:00:00.573Z,60.00
2023-04-08T02:02:04.913Z,60.10
2023-04-08T02:04:06.739Z,60.10
2023-04-08T02:06:08.529Z,60.10
2023-04-08T02:08:10.177Z,60.00
2023-04-08T02:10:11.967Z,60.10
2023-04-08T02:12:13.734Z,60.10
2023-04-08T02:14:15.524Z,60.10
2023-04-08T02:16:22.871Z,60.20
2023-04-08T02:18:30.582Z,60.20
2023-04-08T02:20:38.290Z,60.20
2023-04-08T02:22:59.926Z,60.20
2023-04-08T02:25:03.867Z,60.20
2023-04-08T02:27:05.946Z,60.30
2023-04-08T02:29:09.314Z,60.20
2023-04-08T02:31:14.475Z,60.20
2023-04-08T02:33:22.037Z,60.20
2023-04-08T02:35:27.491Z,60.20
2023-04-08T02:37:29.656Z,60.40
2023-04-08T02:39:32.508Z,60.60
2023-04-08T02:41:34.242Z,60.50
2023-04-08T02:43:36.707Z,60.40
2023-04-08T02:45:41.974Z,60.30
2023-04-08T02:47:44.232Z,60.20
2023-04-08T02:49:46.315Z,60.10
2023-04-08T02:51:47.974Z,60.10
2023-04-08T02:53:49.628Z,60.10
2023-04-08T02:55:51.803Z,60.00
2023-04-08T02:57:53.392Z,59.90
2023-04-08T02:59:55.042Z,60.10
2023-04-08T03:01:56.740Z,60.10
2023-04-08T03:03:58.473Z,60.00
2023-04-08T03:06:00.242Z,60.30
2023-04-08T03:08:02.080Z,60.30
2023-04-08T03:10:03.915Z,60.20
2023-04-08T03:12:05.838Z,60.10
2023-04-08T03:14:07.615Z,60.10
2023-04-08T03:16:09.259Z,60.10
2023-04-08T03:18:11.361Z,60.10
2023-04-08T03:20:13.013Z,60.20
2023-04-08T03:22:14.661Z,60.20
2023-04-08T03:24:16.335Z,60.20
2023-04-08T03:26:17.972Z,60.10
2023-04-08T03:28:19.647Z,60.10
2023-04-08T03:30:21.356Z,60.10
2023-04-08T03:32:23.173Z,60.10
2023-04-08T03:34:24.869Z,60.20
2023-04-08T03:36:26.741Z,60.20
2023-04-08T03:38:28.482Z,60.30
2023-04-08T03:40:30.237Z,60.20
2023-04-08T03:42:32.129Z,60.80
2023-04-08T03:44:33.801Z,60.50
2023-04-08T03:46:35.570Z,60.40
2023-04-08T03:48:37.213Z,60.20
2023-04-08T03:50:38.877Z,60.40
2023-04-08T03:52:40.819Z,60.40
2023-04-08T03:54:42.520Z,60.70
2023-04-08T03:56:44.138Z,60.80
2023-04-08T03:58:45.834Z,60.70
2023-04-08T04:00:47.507Z,60.50
2023-04-08T04:02:49.311Z,60.50
2023-04-08T04:04:51.414Z,60.50
2023-04-08T04:06:53.074Z,60.90
2023-04-08T04:08:55.388Z,60.60
2023-04-08T04:10:58.734Z,60.70
2023-04-08T04:13:00.398Z,60.70
2023-04-08T04:15:02.131Z,60.70
2023-04-08T04:17:03.777Z,60.70
2023-04-08T04:19:05.674Z,60.70
2023-04-08T04:21:07.380Z,60.70
2023-04-08T04:23:09.473Z,60.70
2023-04-08T04:25:11.231Z,60.70
2023-04-08T04:27:12.877Z,60.70
2023-04-08T04:29:16.291Z,60.70
2023-04-08T04:31:21.758Z,60.60
2023-04-08T04:33:23.692Z,60.70
2023-04-08T04:35:25.614Z,60.50
2023-04-08T04:37:27.507Z,60.70
2023-04-08T04:39:29.124Z,60.70
2023-04-08T04:41:30.734Z,60.70
2023-04-08T04:43:32.403Z,61.20
2023-04-08T04:45:34.060Z,61.30
2023-04-08T04:47:36.036Z,61.20
2023-04-08T04:49:37.715Z,61.10
2023-04-08T04:51:39.310Z,61.10
2023-04-08T04:53:40.973Z,61.20
2023-04-08T04:55:42.618Z,61.20
2023-04-08T04:57:47.269Z,61.10
2023-04-08T04:59:48.915Z,61.00
2023-04-08T05:01:50.950Z,61.00
2023-04-08T05:03:52.644Z,61.00
2023-04-08T05:05:54.809Z,61.10
2023-04-08T05:07:56.463Z,61.10
2023-04-08T05:09:58.072Z,61.20
2023-04-08T05:11:59.771Z,61.10
2023-04-08T05:14:01.407Z,61.10
2023-04-08T05:16:03.125Z,61.10
2023-04-08T05:18:04.821Z,61.10
2023-04-08T05:20:06.731Z,61.10
2023-04-08T05:22:08.353Z,61.20
2023-04-08T05:24:10.451Z,61.10
2023-04-08T05:26:12.081Z,61.10
2023-04-08T05:28:13.723Z,61.10
2023-04-08T05:30:16.191Z,61.50
2023-04-08T05:32:17.844Z,61.40
2023-04-08T05:34:22.864Z,61.20
2023-04-08T05:36:24.758Z,61.20
2023-04-08T05:38:26.502Z,61.20
2023-04-08T05:40:28.171Z,62.10
2023-04-08T05:42:29.852Z,61.10
2023-04-08T05:44:31.529Z,61.10
2023-04-08T05:46:33.272Z,61.10
2023-04-08T05:48:34.950Z,61.10
2023-04-08T05:50:36.672Z,61.20
2023-04-08T05:52:42.593Z,61.20
2023-04-08T05:54:44.456Z,61.50
2023-04-08T05:56:46.501Z,61.30
2023-04-08T05:58:48.442Z,61.30
2023-04-08T06:00:50.240Z,61.20
2023-04-08T06:02:52.208Z,61.20
2023-04-08T06:04:54.080Z,61.10
2023-04-08T06:06:59.542Z,61.10
2023-04-08T06:09:01.206Z,61.00
2023-04-08T06:11:05.174Z,61.00
2023-04-08T06:13:06.872Z,61.10
2023-04-08T06:15:08.787Z,61.10
2023-04-08T06:17:10.537Z,61.10
2023-04-08T06:19:12.196Z,61.10
2023-04-08T06:21:13.843Z,61.80
2023-04-08T06:23:15.931Z,61.00
2023-04-08T06:25:17.823Z,61.10
2023-04-08T06:27:19.489Z,61.10
2023-04-08T06:29:21.915Z,61.00
2023-04-08T06:31:24.703Z,61.10
2023-04-08T06:33:26.472Z,61.20
2023-04-08T06:35:28.453Z,61.00
2023-04-08T06:37:30.237Z,61.00
2023-04-08T06:39:32.046Z,61.00
2023-04-08T06:41:33.690Z,61.40
2023-04-08T06:43:49.060Z,61.30
2023-04-08T06:45:51.170Z,61.20
2023-04-08T06:47:52.974Z,61.10
2023-04-08T06:49:54.674Z,61.10
2023-04-08T06:51:56.318Z,61.10
2023-04-08T06:53:58.101Z,61.10
2023-04-08T06:56:00.046Z,61.20
2023-04-08T06:58:02.369Z,61.40
2023-04-08T07:00:04.318Z,61.60
2023-04-08T07:02:06.705Z,61.50
2023-04-08T07:04:08.450Z,61.30
2023-04-08T07:06:10.380Z,61.20
2023-04-08T07:08:12.071Z,61.10
2023-04-08T07:10:13.764Z,61.20
2023-04-08T07:12:15.547Z,61.20
2023-04-08T07:14:17.188Z,61.30
2023-04-08T07:16:18.993Z,61.40
2023-04-08T07:18:21.760Z,61.30
2023-04-08T07:20:23.622Z,61.50
2023-04-08T07:22:25.278Z,61.50
2023-04-08T07:24:27.054Z,61.50
2023-04-08T07:26:28.778Z,61.40
2023-04-08T07:28:31.033Z,61.40
2023-04-08T07:30:32.750Z,61.20
2023-04-08T07:32:34.709Z,61.20
2023-04-08T07:34:36.713Z,61.10
2023-04-08T07:36:38.458Z,61.10
2023-04-08T07:38:40.879Z,61.00
2023-04-08T07:40:42.578Z,60.80
2023-04-08T07:42:44.191Z,60.80
2023-04-08T07:44:46.066Z,60.80
2023-04-08T07:46:51.477Z,60.70
2023-04-08T07:48:53.228Z,60.60
2023-04-08T07:51:08.990Z,60.60
2023-04-08T07:53:12.109Z,60.60
2023-04-08T07:55:13.786Z,60.70
2023-04-08T07:57:15.626Z,60.60
2023-04-08T07:59:17.437Z,60.50
2023-04-08T08:01:21.971Z,60.40
2023-04-08T08:03:23.923Z,60.20
2023-04-08T08:05:25.709Z,60.10
2023-04-08T08:07:27.538Z,60.00
2023-04-08T08:09:31.008Z,59.90
2023-04-08T08:11:33.690Z,59.80
2023-04-08T08:13:35.338Z,59.80
2023-04-08T08:15:37.234Z,59.70
2023-04-08T08:17:39.064Z,59.70
2023-04-08T08:19:40.779Z,59.50
2023-04-08T08:21:42.444Z,59.40
2023-04-08T08:23:44.076Z,59.40
2023-04-08T08:25:45.924Z,59.30
2023-04-08T08:27:47.703Z,59.20
2023-04-08T08:29:49.380Z,59.20
2023-04-08T08:31:51.153Z,59.20
2023-04-08T08:33:52.955Z,59.20
2023-04-08T08:35:55.587Z,59.10
2023-04-08T08:37:57.299Z,59.70
2023-04-08T08:39:58.941Z,59.00
2023-04-08T08:42:00.767Z,58.70
2023-04-08T08:44:03.071Z,58.60
2023-04-08T08:46:04.778Z,58.40
2023-04-08T08:48:07.029Z,58.20
2023-04-08T08:50:09.002Z,58.00
2023-04-08T08:52:11.569Z,57.60
2023-04-08T08:54:14.707Z,57.50
2023-04-08T08:56:18.755Z,57.70
2023-04-08T08:58:20.675Z,57.60
2023-04-08T09:00:34.478Z,57.30
2023-04-08T09:02:36.766Z,57.10
2023-04-08T09:04:38.776Z,57.10
2023-04-08T09:06:41.039Z,56.80
2023-04-08T09:08:42.799Z,56.90
2023-04-08T09:10:44.419Z,56.90
2023-04-08T09:12:58.367Z,56.60
2023-04-08T09:15:04.114Z,56.30
2023-04-08T09:17:06.367Z,56.60
2023-04-08T09:19:09.813Z,56.00
2023-04-08T09:21:12.191Z,56.20
2023-04-08T09:23:13.850Z,56.50
2023-04-08T09:25:25.737Z,56.50
2023-04-08T09:27:36.632Z,56.60
2023-04-08T09:29:39.870Z,56.70
2023-04-08T09:31:41.933Z,56.60
2023-04-08T09:33:43.576Z,56.60
2023-04-08T09:35:46.663Z,56.60
2023-04-08T09:37:48.642Z,56.60
2023-04-08T09:39:50.798Z,56.50
2023-04-08T09:41:52.800Z,56.30
2023-04-08T09:43:55.778Z,56.30
2023-04-08T09:46:00.329Z,56.30
2023-04-08T09:48:08.175Z,56.10
2023-04-08T09:50:10.125Z,56.20
2023-04-08T09:52:15.571Z,56.10
2023-04-08T09:54:19.298Z,56.10
2023-04-08T09:56:21.681Z,56.00
2023-04-08T09:58:28.258Z,56.10
2023-04-08T10:00:32.342Z,55.90
2023-04-08T10:02:38.831Z,56.00
2023-04-08T10:04:44.465Z,55.80
2023-04-08T10:06:51.450Z,55.20
2023-04-08T10:08:53.441Z,55.00
2023-04-08T10:10:56.271Z,55.30
2023-04-08T10:12:58.139Z,55.30
2023-04-08T10:15:18.621Z,55.20
2023-04-08T10:17:29.487Z,55.10
2023-04-08T10:19:41.423Z,55.10
2023-04-08T10:21:48.499Z,55.00
2023-04-08T10:23:53.846Z,55.00
2023-04-08T10:25:55.645Z,54.70
2023-04-08T10:27:57.593Z,54.70
2023-04-08T10:29:59.250Z,54.20
2023-04-08T10:32:01.859Z,54.20
2023-04-08T10:34:15.474Z,54.30
2023-04-08T10:36:17.702Z,54.20
2023-04-08T10:38:19.944Z,54.20
2023-04-08T10:40:21.602Z,54.00
2023-04-08T10:42:27.024Z,53.90
2023-04-08T10:44:28.674Z,53.90
2023-04-08T10:46:37.660Z,53.70
2023-04-08T10:48:39.369Z,53.40
2023-04-08T10:50:41.123Z,53.60
2023-04-08T10:52:48.698Z,53.40
2023-04-08T10:54:50.420Z,53.60
2023-04-08T10:56:53.451Z,53.30
2023-04-08T10:59:00.620Z,53.50
2023-04-08T11:01:08.600Z,53.20
2023-04-08T11:03:13.018Z,53.30
2023-04-08T11:05:16.141Z,53.00
2023-04-08T11:07:20.033Z,53.10
2023-04-08T11:09:21.695Z,53.40
2023-04-08T11:11:29.342Z,52.90
2023-04-08T11:13:31.790Z,52.60
2023-04-08T11:15:33.789Z,53.00
2023-04-08T11:17:36.377Z,53.20
2023-04-08T11:19:39.232Z,53.10
2023-04-08T11:21:40.922Z,53.00
2023-04-08T11:23:46.382Z,53.00
2023-04-08T11:25:48.181Z,53.20
2023-04-08T11:27:50.244Z,52.90
2023-04-08T11:29:53.867Z,52.80
2023-04-08T11:31:55.536Z,53.10
2023-04-08T11:34:00.439Z,53.10
2023-04-08T11:36:04.621Z,52.60
2023-04-08T11:38:06.603Z,52.80
2023-04-08T11:40:09.225Z,52.80
2023-04-08T11:42:31.303Z,52.80
2023-04-08T11:44:33.186Z,52.70
2023-04-08T11:46:35.396Z,52.80
2023-04-08T11:48:38.509Z,53.10
2023-04-08T11:50:40.780Z,52.80
2023-04-08T11:52:43.220Z,53.10
2023-04-08T11:54:44.838Z,52.90
2023-04-08T11:56:47.069Z,53.10
2023-04-08T11:58:48.977Z,53.30
2023-04-08T12:00:50.749Z,52.90
2023-04-08T12:02:53.032Z,53.50
2023-04-08T12:04:54.806Z,53.20
2023-04-08T12:06:58.260Z,52.80
2023-04-08T12:09:00.367Z,53.20
2023-04-08T12:11:16.703Z,52.60
2023-04-08T12:13:21.367Z,52.70
2023-04-08T12:15:23.029Z,52.80
2023-04-08T12:17:24.720Z,53.50
2023-04-08T12:19:27.015Z,53.00
2023-04-08T12:21:28.619Z,53.10
2023-04-08T12:23:30.246Z,53.40
2023-04-08T12:25:31.877Z,53.60
2023-04-08T12:27:33.583Z,53.60
2023-04-08T12:29:35.366Z,53.60
2023-04-08T12:31:37.343Z,53.70
2023-04-08T12:33:39.004Z,53.70
2023-04-08T12:35:40.732Z,53.60
2023-04-08T12:37:42.466Z,53.70
2023-04-08T12:39:46.406Z,53.30
2023-04-08T12:41:48.057Z,53.60
2023-04-08T12:43:49.748Z,53.80
2023-04-08T12:45:51.877Z,53.30
2023-04-08T12:47:53.617Z,53.40
2023-04-08T12:49:55.287Z,53.20
2023-04-08T12:51:57.693Z,53.40
2023-04-08T12:54:00.556Z,53.50
2023-04-08T12:56:02.848Z,53.60
2023-04-08T12:58:05.582Z,53.60
2023-04-08T13:00:07.568Z,53.10
2023-04-08T13:02:09.347Z,53.30
2023-04-08T13:04:11.231Z,53.60
2023-04-08T13:06:13.135Z,53.90
2023-04-08T13:08:14.786Z,54.10
2023-04-08T13:10:16.684Z,54.20
2023-04-08T13:12:18.302Z,54.40
2023-04-08T13:14:19.965Z,54.50
2023-04-08T13:16:21.856Z,54.00
2023-04-08T13:18:23.639Z,54.10
2023-04-08T13:20:26.232Z,54.00
2023-04-08T13:22:27.941Z,54.00
2023-04-08T13:24:29.604Z,54.00
2023-04-08T13:26:31.298Z,53.80
2023-04-08T13:28:33.575Z,53.20
2023-04-08T13:30:37.398Z,53.40
2023-04-08T13:32:39.045Z,53.10
2023-04-08T13:34:42.369Z,53.50
2023-04-08T13:36:44.071Z,53.80
2023-04-08T13:38:46.143Z,53.70
2023-04-08T13:40:49.199Z,53.90
2023-04-08T13:42:50.960Z,53.80
2023-04-08T13:44:52.718Z,53.50
2023-04-08T13:46:54.350Z,53.90
2023-04-08T13:48:55.972Z,53.40
2023-04-08T13:50:57.628Z,53.30
2023-04-08T13:52:59.294Z,52.70
2023-04-08T13:55:01.065Z,52.90
2023-04-08T13:57:02.747Z,52.40
2023-04-08T13:59:04.545Z,52.70
2023-04-08T14:01:06.905Z,52.70
2023-04-08T14:03:08.630Z,52.90
2023-04-08T14:05:10.305Z,52.40
2023-04-08T14:07:12.417Z,52.40
2023-04-08T14:09:14.100Z,52.70
2023-04-08T14:11:15.735Z,52.70
2023-04-08T14:13:17.481Z,52.70
2023-04-08T14:15:19.141Z,52.20
2023-04-08T14:17:20.907Z,51.90
2023-04-08T14:19:22.819Z,52.00
2023-04-08T14:21:24.881Z,52.00
2023-04-08T14:23:26.566Z,52.00
2023-04-08T14:25:28.204Z,51.70
2023-04-08T14:27:29.938Z,51.40
2023-04-08T14:29:31.672Z,51.50
2023-04-08T14:31:34.162Z,51.50
2023-04-08T14:33:36.081Z,51.40
2023-04-08T14:35:37.840Z,51.50
2023-04-08T14:37:39.577Z,52.10
2023-04-08T14:39:41.246Z,51.80
2023-04-08T14:41:42.856Z,51.40
2023-04-08T14:43:44.521Z,51.60
2023-04-08T14:45:46.258Z,51.60
2023-04-08T14:47:50.385Z,51.70
2023-04-08T14:49:52.148Z,51.70
2023-04-08T14:51:53.766Z,51.60
2023-04-08T14:53:55.711Z,51.60
2023-04-08T14:55:57.565Z,51.90
2023-04-08T14:58:00.940Z,52.00
2023-04-08T15:00:03.519Z,52.10
2023-04-08T15:02:05.427Z,52.00
2023-04-08T15:04:07.183Z,52.10
2023-04-08T15:06:08.985Z,52.10
2023-04-08T15:08:10.977Z,52.20
2023-04-08T15:10:12.811Z,52.20
2023-04-08T15:12:14.463Z,52.30
2023-04-08T15:14:16.123Z,52.40
2023-04-08T15:16:17.814Z,52.90
2023-04-08T15:18:19.588Z,52.20
2023-04-08T15:20:21.427Z,52.20
2023-04-08T15:22:23.078Z,52.20
2023-04-08T15:24:24.816Z,52.30
2023-04-08T15:26:27.320Z,52.10
2023-04-08T15:28:29.141Z,52.20
2023-04-08T15:30:35.255Z,52.40
2023-04-08T15:32:37.243Z,52.40
2023-04-08T15:34:38.934Z,52.40
2023-04-08T15:36:40.568Z,52.40
2023-04-08T15:38:42.222Z,52.50
2023-04-08T15:40:44.697Z,52.40
2023-04-08T15:42:47.193Z,52.50
2023-04-08T15:44:48.951Z,52.50
2023-04-08T15:46:50.676Z,52.60
2023-04-08T15:48:52.690Z,52.60
2023-04-08T15:50:54.697Z,52.40
2023-04-08T15:52:56.880Z,52.40
2023-04-08T15:54:58.532Z,52.50
2023-04-08T15:57:00.203Z,52.20
2023-04-08T15:59:01.842Z,52.40
2023-04-08T16:01:03.632Z,52.40
2023-04-08T16:03:08.216Z,52.30
2023-04-08T16:05:10.078Z,52.30
2023-04-08T16:07:11.758Z,52.10
2023-04-08T16:09:13.488Z,52.40
2023-04-08T16:11:15.432Z,52.50
2023-04-08T16:13:17.108Z,52.50
2023-04-08T16:15:18.801Z,52.40
2023-04-08T16:17:20.860Z,52.60
2023-04-08T16:19:22.628Z,52.60
2023-04-08T16:21:24.337Z,52.60
2023-04-08T16:23:26.132Z,52.70
2023-04-08T16:25:28.451Z,52.80
2023-04-08T16:27:30.281Z,52.80
2023-04-08T16:29:32.501Z,52.60
2023-04-08T16:31:34.208Z,52.50
2023-04-08T16:33:36.614Z,52.50
2023-04-08T16:35:38.561Z,52.60
2023-04-08T16:37:40.291Z,52.70
2023-04-08T16:39:42.292Z,52.60
2023-04-08T16:41:44.675Z,52.60
2023-04-08T16:43:46.426Z,52.60
2023-04-08T16:45:48.540Z,52.60
2023-04-08T16:47:50.527Z,52.60
2023-04-08T16:49:52.960Z,52.50
2023-04-08T16:51:54.884Z,52.40
2023-04-08T16:53:58.483Z,52.50
2023-04-08T16:56:01.116Z,52.50
2023-04-08T16:58:03.172Z,52.50
2023-04-08T17:00:05.141Z,52.60
2023-04-08T17:02:07.091Z,52.60
2023-04-08T17:04:08.840Z,52.70
2023-04-08T17:06:14.208Z,52.70
2023-04-08T17:08:16.199Z,52.70
2023-04-08T17:10:18.812Z,52.70
2023-04-08T17:12:21.117Z,52.70
2023-04-08T17:14:22.808Z,52.80
2023-04-08T17:16:24.964Z,52.80
2023-04-08T17:18:26.628Z,52.80
2023-04-08T17:20:28.345Z,52.80
2023-04-08T17:22:30.000Z,52.80
2023-04-08T17:24:31.702Z,52.80
2023-04-08T17:26:33.357Z,52.90
2023-04-08T17:28:35.438Z,52.90
2023-04-08T17:30:37.792Z,52.90
2023-04-08T17:32:39.686Z,53.00
2023-04-08T17:34:41.421Z,53.00
2023-04-08T17:36:44.563Z,53.00
2023-04-08T17:38:47.778Z,53.00
2023-04-08T17:40:49.547Z,53.00
2023-04-08T17:42:51.344Z,53.00
2023-04-08T17:44:52.989Z,53.00
2023-04-08T17:46:55.154Z,53.00
2023-04-08T17:48:56.792Z,53.10
2023-04-08T17:50:59.003Z,53.10
2023-04-08T17:53:00.740Z,53.20
2023-04-08T17:55:02.550Z,53.20
2023-04-08T17:57:04.464Z,53.20
2023-04-08T17:59:06.187Z,53.30
2023-04-08T18:01:07.893Z,53.30
2023-04-08T18:03:10.819Z,53.50
2023-04-08T18:05:13.092Z,53.50
2023-04-08T18:07:14.765Z,53.50
2023-04-08T18:09:16.505Z,53.60
2023-04-08T18:11:18.458Z,53.60
2023-04-08T18:13:20.129Z,53.70
2023-04-08T18:15:21.895Z,53.70
2023-04-08T18:17:23.693Z,53.80
2023-04-08T18:19:26.425Z,53.80
2023-04-08T18:21:28.092Z,53.90
2023-04-08T18:23:29.711Z,53.90
2023-04-08T18:25:31.667Z,54.00
2023-04-08T18:27:33.532Z,54.10
2023-04-08T18:29:35.395Z,54.10
2023-04-08T18:31:37.032Z,54.10
2023-04-08T18:33:39.192Z,54.10
2023-04-08T18:35:41.510Z,54.10
2023-04-08T18:37:43.174Z,54.20
2023-04-08T18:39:44.823Z,54.20
2023-04-08T18:41:46.529Z,54.30
2023-04-08T18:43:48.386Z,54.30
2023-04-08T18:45:50.056Z,54.40
2023-04-08T18:47:51.757Z,54.50
2023-04-08T18:49:53.506Z,54.50
2023-04-08T18:52:02.496Z,54.60
2023-04-08T18:54:05.160Z,54.70
2023-04-08T18:56:13.464Z,54.80
2023-04-08T18:58:15.199Z,55.00
2023-04-08T19:00:17.007Z,55.00
2023-04-08T19:02:18.694Z,55.10
2023-04-08T19:04:20.447Z,55.00
2023-04-08T19:06:22.614Z,55.10
2023-04-08T19:08:24.385Z,55.20
2023-04-08T19:10:26.213Z,55.00
2023-04-08T19:12:27.962Z,55.00
2023-04-08T19:14:30.403Z,55.00
2023-04-08T19:16:32.364Z,55.90
2023-04-08T19:18:36.926Z,55.20
2023-04-08T19:20:51.032Z,55.10
2023-04-08T19:23:10.218Z,55.30
2023-04-08T19:25:11.977Z,55.50
2023-04-08T19:27:16.676Z,55.60
2023-04-08T19:29:19.836Z,55.60
2023-04-08T19:31:22.020Z,55.60
2023-04-08T19:33:23.711Z,55.50
2023-04-08T19:35:25.403Z,55.40
2023-04-08T19:37:27.214Z,55.50
2023-04-08T19:39:29.068Z,55.50
2023-04-08T19:41:30.737Z,55.60
2023-04-08T19:43:32.421Z,55.60
2023-04-08T19:45:34.484Z,55.70
2023-04-08T19:47:36.507Z,55.70
2023-04-08T19:49:38.844Z,55.70
2023-04-08T19:51:40.536Z,55.70
2023-04-08T19:53:42.582Z,55.80
2023-04-08T19:55:44.525Z,55.80
2023-04-08T19:57:46.184Z,56.00
2023-04-08T19:59:48.616Z,55.80
2023-04-08T20:01:50.885Z,56.00
2023-04-08T20:03:52.885Z,56.00
2023-04-08T20:05:54.779Z,56.10
2023-04-08T20:07:56.446Z,56.20
2023-04-08T20:09:59.204Z,56.10
2023-04-08T20:12:04.594Z,56.20
2023-04-08T20:14:06.454Z,56.20
2023-04-08T20:16:08.164Z,56.20
2023-04-08T20:18:09.803Z,56.00
2023-04-08T20:20:11.737Z,55.90
2023-04-08T20:22:13.410Z,55.80
2023-04-08T20:24:16.172Z,55.80
2023-04-08T20:26:17.826Z,55.80
2023-04-08T20:28:20.318Z,55.70
2023-04-08T20:30:22.620Z,55.70
2023-04-08T20:32:24.370Z,55.70
2023-04-08T20:34:26.243Z,55.60
2023-04-08T20:36:28.279Z,55.40
2023-04-08T20:38:35.271Z,55.40
2023-04-08T20:40:41.355Z,55.40
2023-04-08T20:42:43.191Z,55.40
2023-04-08T20:44:45.063Z,55.20
2023-04-08T20:46:49.270Z,55.20
2023-04-08T20:48:51.806Z,55.20
2023-04-08T20:50:53.611Z,55.30
2023-04-08T20:52:55.257Z,55.40
2023-04-08T20:54:56.967Z,55.40
2023-04-08T20:56:58.985Z,55.40
2023-04-08T20:59:00.707Z,55.30
2023-04-08T21:01:02.523Z,55.20
2023-04-08T21:03:04.300Z,55.20
2023-04-08T21:05:06.179Z,55.20
2023-04-08T21:07:08.040Z,55.20
2023-04-08T21:09:11.230Z,55.20
2023-04-08T21:11:13.447Z,55.20
2023-04-08T21:13:15.243Z,55.20
2023-04-08T21:15:17.095Z,55.10
2023-04-08T21:17:18.793Z,55.10
2023-04-08T21:19:20.489Z,55.10
2023-04-08T21:21:22.166Z,55.20
2023-04-08T21:23:23.865Z,55.10
2023-04-08T21:25:26.582Z,55.10
2023-04-08T21:27:28.642Z,55.10
2023-04-08T21:29:30.296Z,55.00
2023-04-08T21:31:32.646Z,54.90
2023-04-08T21:33:34.404Z,54.90
2023-04-08T21:35:36.295Z,54.90
2023-04-08T21:37:38.099Z,54.90
2023-04-08T21:39:39.926Z,54.70
2023-04-08T21:41:41.582Z,54.80
2023-04-08T21:43:43.221Z,54.90
2023-04-08T21:45:44.891Z,54.90
2023-04-08T21:47:46.622Z,54.80
2023-04-08T21:49:48.964Z,54.80
2023-04-08T21:51:50.891Z,54.90
2023-04-08T21:53:52.912Z,55.00
2023-04-08T21:55:54.878Z,55.00
2023-04-08T21:57:56.802Z,55.00
2023-04-08T21:59:58.560Z,55.00
2023-04-08T22:02:00.477Z,55.00
2023-04-08T22:04:02.401Z,55.00
2023-04-08T22:06:06.822Z,55.00
2023-04-08T22:08:08.610Z,55.00
2023-04-08T22:10:10.673Z,55.00
2023-04-08T22:12:12.388Z,55.00
2023-04-08T22:14:15.453Z,54.90
2023-04-08T22:16:17.206Z,54.70
2023-04-08T22:18:18.848Z,54.60
2023-04-08T22:20:20.516Z,54.60
2023-04-08T22:22:22.230Z,54.70
2023-04-08T22:24:23.876Z,54.70
2023-04-08T22:26:26.988Z,54.70
2023-04-08T22:28:28.655Z,54.80
2023-04-08T22:30:30.467Z,54.90
2023-04-08T22:32:32.161Z,54.90
2023-04-08T22:34:36.549Z,55.50
2023-04-08T22:36:38.181Z,54.80
2023-04-08T22:38:39.792Z,54.80
2023-04-08T22:40:41.456Z,54.80
2023-04-08T22:42:43.113Z,54.80
2023-04-08T22:44:44.786Z,54.80
2023-04-08T22:46:46.400Z,54.90
2023-04-08T22:48:49.466Z,54.90
2023-04-08T22:50:51.891Z,55.60
2023-04-08T22:52:53.623Z,54.90
2023-04-08T22:54:55.437Z,55.10
2023-04-08T22:56:57.852Z,55.00
2023-04-08T22:58:59.520Z,55.10
2023-04-08T23:01:02.377Z,55.10
2023-04-08T23:03:04.894Z,55.20
2023-04-08T23:05:07.034Z,55.20
2023-04-08T23:07:08.666Z,55.00
2023-04-08T23:09:10.369Z,55.10
2023-04-08T23:11:12.053Z,55.20
2023-04-08T23:13:14.264Z,55.20
2023-04-08T23:15:15.870Z,55.10
2023-04-08T23:17:17.528Z,55.30
2023-04-08T23:19:19.234Z,55.30
2023-04-08T23:21:21.133Z,55.30
2023-04-08T23:23:26.146Z,55.30
2023-04-08T23:25:27.748Z,55.30
2023-04-08T23:27:29.380Z,55.40
2023-04-08T23:29:31.541Z,55.60
2023-04-08T23:31:33.324Z,55.60
2023-04-08T23:33:34.994Z,55.50
2023-04-08T23:35:38.438Z,55.60
2023-04-08T23:37:40.354Z,55.60
2023-04-08T23:39:42.058Z,55.50
2023-04-08T23:41:43.744Z,56.20
2023-04-08T23:43:45.839Z,55.50
2023-04-08T23:45:47.475Z,55.50
2023-04-08T23:47:49.162Z,55.40
2023-04-08T23:49:50.862Z,55.40
2023-04-08T23:51:53.531Z,55.60
2023-04-08T23:53:55.502Z,55.60
2023-04-08T23:56:04.411Z,55.50
2023-04-08T23:58:06.023Z,55.50
